FMN weather

Four Corners Regional Airport
Farmington, New Mexico, United States

Public forecast

Using degrees Fahrenheit for public forecast. Weather courtesy of forecast.io.

Current aviation weather report (METAR) for Four Corners Regional Airport

Retrieved 2020/04/05 09:53 UTC (51 minutes ago):

KFMN 050953Z AUTO 01003KT 10SM CLR 05/M06 A2988 RMK AO2 SLP089 T00501056

Aviation forecast (TAF) for Four Corners Regional Airport

Retrieved 2020/04/05 06:45 UTC (4 hours ago):

TAF KFMN 050543Z 0506/0606 VRB06KT P6SM BKN110 FM051000 08007KT P6SM FEW110 FM051800 22010G16KT P6SM FEW120 FM060200 24006KT P6SM SKC